createdAt,value
2022-12-01T00:00:22.733Z,102239.63
2022-12-01T00:02:49.326Z,102239.84
2022-12-01T00:05:15.841Z,102238.81
2022-12-01T00:07:42.305Z,102236.38
2022-12-01T00:10:26.649Z,102237.19
2022-12-01T00:12:54.203Z,102231.75
2022-12-01T00:15:21.402Z,102232.31
2022-12-01T00:17:48.875Z,102232.31
2022-12-01T00:20:18.190Z,102232.59
2022-12-01T00:22:46.352Z,102233.13
2022-12-01T00:25:14.137Z,102236.09
2022-12-01T00:27:41.094Z,102233.13
2022-12-01T00:30:10.954Z,102235.59
2022-12-01T00:32:37.812Z,102228.81
2022-12-01T00:35:06.097Z,102230.38
2022-12-01T00:37:34.202Z,102232.78
2022-12-01T00:40:01.242Z,102233.88
2022-12-01T00:42:28.026Z,102238.78
2022-12-01T00:44:54.379Z,102241.44
2022-12-01T00:47:21.043Z,102237.13
2022-12-01T00:49:47.621Z,102238.22
2022-12-01T00:52:15.722Z,102244.16
2022-12-01T00:54:42.090Z,102238.22
2022-12-01T00:57:09.019Z,102241.75
2022-12-01T00:59:35.857Z,102243.88
2022-12-01T01:02:08.333Z,102240.63
2022-12-01T01:04:36.260Z,102240.66
2022-12-01T01:07:02.799Z,102246.84
2022-12-01T01:09:30.819Z,102250.88
2022-12-01T01:11:57.213Z,102248.22
2022-12-01T01:14:24.070Z,102249.00
2022-12-01T01:16:50.582Z,102252.78
2022-12-01T01:19:17.575Z,102241.97
2022-12-01T01:21:43.963Z,102248.44
2022-12-01T01:24:10.364Z,102249.00
2022-12-01T01:26:37.754Z,102241.16
2022-12-01T01:29:07.489Z,102251.16
2022-12-01T01:31:34.930Z,102244.13
2022-12-01T01:34:01.447Z,102251.69
2022-12-01T01:36:28.075Z,102247.25
2022-12-01T01:38:55.219Z,102244.84
2022-12-01T01:41:23.463Z,102249.44
2022-12-01T01:43:52.364Z,102247.56
2022-12-01T01:46:21.620Z,102250.25
2022-12-01T01:49:01.113Z,102252.13
2022-12-01T01:51:33.592Z,102259.78
2022-12-01T01:54:06.333Z,102252.22
2022-12-01T01:56:34.168Z,102257.81
2022-12-01T01:59:00.889Z,102253.50
2022-12-01T02:01:27.309Z,102247.25
2022-12-01T02:03:54.727Z,102248.88
2022-12-01T02:06:23.474Z,102251.91
2022-12-01T02:08:50.417Z,102257.81
2022-12-01T02:11:16.764Z,102252.09
2022-12-01T02:14:08.758Z,102252.63
2022-12-01T02:17:00.024Z,102253.72
2022-12-01T02:19:55.416Z,102253.94
2022-12-01T02:22:50.775Z,102247.00
2022-12-01T02:25:28.226Z,102249.63
2022-12-01T02:27:57.634Z,102247.13
2022-12-01T02:30:43.671Z,102245.81
2022-12-01T02:33:23.893Z,102245.81
2022-12-01T02:36:00.212Z,102254.78
2022-12-01T02:38:40.076Z,102252.06
2022-12-01T02:41:19.965Z,102251.81
2022-12-01T02:44:21.227Z,102256.38
2022-12-01T02:46:56.369Z,102252.06
2022-12-01T02:49:35.290Z,102252.09
2022-12-01T02:52:06.017Z,102256.44
2022-12-01T02:54:33.617Z,102247.72
2022-12-01T02:57:00.038Z,102246.69
2022-12-01T02:59:26.593Z,102243.72
2022-12-01T03:02:04.285Z,102243.47
2022-12-01T03:04:42.961Z,102243.47
2022-12-01T03:07:13.299Z,102238.09
2022-12-01T03:10:17.201Z,102237.25
2022-12-01T03:13:39.987Z,102236.16
2022-12-01T03:16:28.733Z,102234.25
2022-12-01T03:19:00.340Z,102247.00
2022-12-01T03:21:33.453Z,102236.16
2022-12-01T03:24:05.241Z,102238.94
2022-12-01T03:26:35.301Z,102247.00
2022-12-01T03:29:08.181Z,102244.28
2022-12-01T03:31:40.924Z,102237.47
2022-12-01T03:34:24.054Z,102241.53
2022-12-01T03:36:56.510Z,102240.69
2022-12-01T03:39:29.419Z,102243.69
2022-12-01T03:42:00.790Z,102242.28
2022-12-01T03:44:35.333Z,102246.06
2022-12-01T03:47:09.969Z,102243.88
2022-12-01T03:49:37.599Z,102241.34
2022-12-01T03:52:03.941Z,102240.16
2022-12-01T03:54:52.084Z,102246.50
2022-12-01T03:57:26.222Z,102231.44
2022-12-01T03:59:54.058Z,102236.22
2022-12-01T04:02:20.861Z,102237.63
2022-12-01T04:04:47.395Z,102238.38
2022-12-01T04:07:14.765Z,102242.44
2022-12-01T04:09:41.833Z,102237.81
2022-12-01T04:12:32.676Z,102245.16
2022-12-01T04:15:06.088Z,102245.19
2022-12-01T04:17:32.562Z,102241.63
2022-12-01T04:19:58.987Z,102238.66
2022-12-01T04:22:25.751Z,102242.44
2022-12-01T04:24:52.934Z,102247.03
2022-12-01T04:27:20.098Z,102242.97
2022-12-01T04:29:46.700Z,102239.75
2022-12-01T04:32:13.698Z,102248.66
2022-12-01T04:34:40.140Z,102247.56
2022-12-01T04:37:07.321Z,102248.38
2022-12-01T04:39:34.659Z,102249.22
2022-12-01T04:42:01.092Z,102256.28
2022-12-01T04:44:34.327Z,102264.47
2022-12-01T04:47:01.449Z,102257.41
2022-12-01T04:49:28.346Z,102257.06
2022-12-01T04:51:54.817Z,102259.50
2022-12-01T04:54:21.231Z,102264.38
2022-12-01T04:56:48.200Z,102255.28
2022-12-01T04:59:14.647Z,102263.38
2022-12-01T05:01:41.184Z,102260.84
2022-12-01T05:04:07.870Z,102263.63
2022-12-01T05:06:34.322Z,102254.63
2022-12-01T05:09:02.068Z,102256.28
2022-12-01T05:11:29.916Z,102258.41
2022-12-01T05:13:56.382Z,102251.13
2022-12-01T05:16:25.366Z,102259.25
2022-12-01T05:19:16.593Z,102258.16
2022-12-01T05:21:44.835Z,102259.28
2022-12-01T05:24:12.672Z,102261.91
2022-12-01T05:26:39.587Z,102266.34
2022-12-01T05:29:06.377Z,102260.81
2022-12-01T05:31:33.148Z,102257.75
2022-12-01T05:33:59.780Z,102267.56
2022-12-01T05:36:27.048Z,102269.19
2022-12-01T05:38:54.519Z,102266.75
2022-12-01T05:41:21.452Z,102268.84
2022-12-01T05:43:48.032Z,102274.66
2022-12-01T05:46:14.441Z,102279.78
2022-12-01T05:48:40.906Z,102277.34
2022-12-01T05:51:09.594Z,102277.88
2022-12-01T05:53:35.986Z,102283.94
2022-12-01T05:56:02.470Z,102282.75
2022-12-01T05:58:28.857Z,102278.97
2022-12-01T06:00:55.259Z,102283.81
2022-12-01T06:03:21.754Z,102285.19
2022-12-01T06:05:48.187Z,102289.78
2022-12-01T06:08:14.591Z,102289.22
2022-12-01T06:10:41.194Z,102291.94
2022-12-01T06:13:07.602Z,102290.31
2022-12-01T06:15:34.007Z,102294.69
2022-12-01T06:18:00.422Z,102300.09
2022-12-01T06:20:27.073Z,102299.50
2022-12-01T06:22:53.610Z,102296.03
2022-12-01T06:25:20.035Z,102296.84
2022-12-01T06:27:46.983Z,102306.38
2022-12-01T06:30:13.605Z,102305.50
2022-12-01T06:32:40.191Z,102313.88
2022-12-01T06:35:07.121Z,102313.69
2022-12-01T06:37:33.591Z,102309.38
2022-12-01T06:40:00.021Z,102311.25
2022-12-01T06:42:30.100Z,102309.94
2022-12-01T06:44:56.487Z,102305.00
2022-12-01T06:47:22.931Z,102312.91
2022-12-01T06:49:49.561Z,102312.59
2022-12-01T06:52:16.063Z,102313.69
2022-12-01T06:54:42.415Z,102317.53
2022-12-01T06:57:08.958Z,102314.53
2022-12-01T06:59:35.751Z,102317.78
2022-12-01T07:02:03.102Z,102326.97
2022-12-01T07:04:30.229Z,102324.53
2022-12-01T07:06:56.633Z,102329.13
2022-12-01T07:09:23.044Z,102328.09
2022-12-01T07:11:49.568Z,102329.63
2022-12-01T07:14:24.836Z,102327.28
2022-12-01T07:16:51.311Z,102329.31
2022-12-01T07:19:17.996Z,102331.75
2022-12-01T07:21:44.515Z,102330.50
2022-12-01T07:24:12.534Z,102334.81
2022-12-01T07:26:40.132Z,102338.31
2022-12-01T07:29:07.076Z,102342.91
2022-12-01T07:31:33.497Z,102346.03
2022-12-01T07:33:59.933Z,102337.06
2022-12-01T07:36:26.542Z,102348.72
2022-12-01T07:38:53.049Z,102345.72
2022-12-01T07:41:20.085Z,102360.66
2022-12-01T07:43:47.997Z,102354.88
2022-12-01T07:46:22.702Z,102355.44
2022-12-01T07:48:49.921Z,102354.53
2022-12-01T07:51:17.317Z,102358.56
2022-12-01T07:53:45.369Z,102353.41
2022-12-01T07:56:12.506Z,102350.13
2022-12-01T07:58:39.254Z,102359.34
2022-12-01T08:01:11.708Z,102347.94
2022-12-01T08:03:38.683Z,102360.09
2022-12-01T08:06:06.255Z,102362.09
2022-12-01T08:08:34.394Z,102370.97
2022-12-01T08:11:07.762Z,102365.75
2022-12-01T08:13:34.208Z,102361.53
2022-12-01T08:16:04.957Z,102363.63
2022-12-01T08:18:33.607Z,102370.09
2022-12-01T08:21:00.099Z,102362.22
2022-12-01T08:23:26.495Z,102369.91
2022-12-01T08:25:52.912Z,102375.31
2022-12-01T08:28:19.840Z,102381.78
2022-12-01T08:30:46.592Z,102373.31
2022-12-01T08:33:13.207Z,102373.41
2022-12-01T08:35:39.610Z,102369.31
2022-12-01T08:38:06.017Z,102368.00
2022-12-01T08:40:32.496Z,102369.47
2022-12-01T08:42:59.031Z,102374.72
2022-12-01T08:45:25.480Z,102369.03
2022-12-01T08:47:54.840Z,102371.78
2022-12-01T08:50:21.241Z,102370.16
2022-12-01T08:52:47.721Z,102372.91
2022-12-01T08:55:14.197Z,102380.19
2022-12-01T08:57:40.629Z,102379.88
2022-12-01T09:00:07.696Z,102378.84
2022-12-01T09:02:34.644Z,102380.25
2022-12-01T09:05:01.148Z,102375.47
2022-12-01T09:07:27.722Z,102378.50
2022-12-01T09:09:54.220Z,102383.78
2022-12-01T09:12:20.668Z,102392.94
2022-12-01T09:14:49.433Z,102394.84
2022-12-01T09:17:17.208Z,102389.72
2022-12-01T09:19:44.217Z,102393.66
2022-12-01T09:22:11.733Z,102395.00
2022-12-01T09:24:38.397Z,102395.31
2022-12-01T09:27:05.712Z,102395.63
2022-12-01T09:29:32.509Z,102382.59
2022-12-01T09:31:59.775Z,102380.13
2022-12-01T09:34:26.753Z,102379.28
2022-12-01T09:36:56.468Z,102377.34
2022-12-01T09:39:23.128Z,102369.31
2022-12-01T09:42:08.717Z,102364.47
2022-12-01T09:44:43.764Z,102361.47
2022-12-01T09:47:22.186Z,102365.22
2022-12-01T09:50:11.983Z,102364.34
2022-12-01T09:52:47.791Z,102369.13
2022-12-01T09:55:16.814Z,102366.84
2022-12-01T09:57:46.721Z,102367.00
2022-12-01T10:00:21.872Z,102356.69
2022-12-01T10:02:54.217Z,102362.72
2022-12-01T10:05:23.755Z,102363.09
2022-12-01T10:08:00.398Z,102359.91
2022-12-01T10:10:42.879Z,102355.41
2022-12-01T10:13:18.837Z,102353.66
2022-12-01T10:15:47.998Z,102351.09
2022-12-01T10:18:26.006Z,102353.97
2022-12-01T10:21:12.857Z,102348.50
2022-12-01T10:24:00.519Z,102350.19
2022-12-01T10:26:34.920Z,102354.59
2022-12-01T10:29:12.163Z,102358.41
2022-12-01T10:32:05.103Z,102351.06
2022-12-01T10:34:38.518Z,102347.63
2022-12-01T10:37:06.558Z,102337.59
2022-12-01T10:39:43.484Z,102330.78
2022-12-01T10:42:19.031Z,102337.28
2022-12-01T10:44:45.719Z,102337.06
2022-12-01T10:47:19.439Z,102337.50
2022-12-01T10:49:45.873Z,102341.88
2022-12-01T10:52:49.057Z,102333.50
2022-12-01T10:55:27.635Z,102343.50
2022-12-01T10:57:56.827Z,102341.66
2022-12-01T11:03:30.233Z,102337.03
2022-12-01T11:05:59.676Z,102345.59
2022-12-01T11:08:50.654Z,102343.78
2022-12-01T11:11:25.978Z,102346.50
2022-12-01T11:13:53.793Z,102345.19
2022-12-01T11:16:37.677Z,102339.47
2022-12-01T11:19:32.437Z,102339.00
2022-12-01T11:22:01.356Z,102347.22
2022-12-01T11:24:27.701Z,102345.66
2022-12-01T11:26:56.824Z,102343.22
2022-12-01T11:29:36.140Z,102346.22
2022-12-01T11:32:17.644Z,102340.81
2022-12-01T11:34:50.827Z,102341.34
2022-12-01T11:37:20.028Z,102339.41
2022-12-01T11:39:48.616Z,102339.69
2022-12-01T11:42:34.366Z,102344.03
2022-12-01T11:45:20.391Z,102337.19
2022-12-01T11:48:18.625Z,102335.91
2022-12-01T11:51:01.376Z,102344.72
2022-12-01T11:53:34.034Z,102333.81
2022-12-01T11:56:25.093Z,102331.28
2022-12-01T11:59:01.350Z,102340.94
2022-12-01T12:02:03.046Z,102343.81
2022-12-01T12:04:38.911Z,102344.84
2022-12-01T12:07:11.305Z,102351.50
2022-12-01T12:09:45.362Z,102343.31
2022-12-01T12:12:44.080Z,102340.44
2022-12-01T12:15:16.256Z,102345.06
2022-12-01T12:17:48.962Z,102344.09
2022-12-01T12:21:04.179Z,102336.16
2022-12-01T12:23:55.506Z,102335.69
2022-12-01T12:26:24.591Z,102332.69
2022-12-01T12:28:56.772Z,102329.41
2022-12-01T12:31:33.452Z,102333.28
2022-12-01T12:34:28.891Z,102331.72
2022-12-01T12:37:10.873Z,102331.94
2022-12-01T12:39:58.894Z,102328.91
2022-12-01T12:42:48.101Z,102332.47
2022-12-01T12:45:42.524Z,102331.66
2022-12-01T12:48:16.413Z,102334.88
2022-12-01T12:51:04.216Z,102336.78
2022-12-01T12:53:39.084Z,102330.09
2022-12-01T12:56:10.698Z,102333.59
2022-12-01T12:58:58.213Z,102328.69
2022-12-01T13:01:32.188Z,102332.69
2022-12-01T13:04:21.843Z,102334.91
2022-12-01T13:07:03.523Z,102334.09
2022-12-01T13:09:35.176Z,102332.00
2022-12-01T13:12:20.892Z,102329.06
2022-12-01T13:14:55.187Z,102332.13
2022-12-01T13:17:37.120Z,102323.91
2022-12-01T13:20:05.610Z,102335.78
2022-12-01T13:22:35.113Z,102333.69
2022-12-01T13:25:03.763Z,102332.13
2022-12-01T13:27:35.099Z,102338.28
2022-12-01T13:30:01.739Z,102337.13
2022-12-01T13:32:38.385Z,102338.22
2022-12-01T13:35:20.678Z,102330.72
2022-12-01T13:37:47.475Z,102340.38
2022-12-01T13:40:23.236Z,102336.22
2022-12-01T13:43:22.985Z,102330.84
2022-12-01T13:45:50.161Z,102330.38
2022-12-01T13:48:49.825Z,102331.66
2022-12-01T13:51:16.594Z,102337.00
2022-12-01T13:53:55.280Z,102322.78
2022-12-01T13:56:24.627Z,102328.09
2022-12-01T13:58:54.004Z,102326.66
2022-12-01T14:01:20.774Z,102321.28
2022-12-01T14:04:02.637Z,102319.88
2022-12-01T14:06:46.677Z,102319.28
2022-12-01T14:09:35.492Z,102321.47
2022-12-01T14:12:01.871Z,102326.81
2022-12-01T14:14:36.165Z,102328.00
2022-12-01T14:17:03.519Z,102316.06
2022-12-01T14:19:51.987Z,102316.09
2022-12-01T14:22:36.897Z,102318.63
2022-12-01T14:25:08.005Z,102316.22
2022-12-01T14:27:40.735Z,102319.56
2022-12-01T14:30:41.168Z,102320.06
2022-12-01T14:33:48.613Z,102313.94
2022-12-01T14:36:38.188Z,102308.53
2022-12-01T14:39:22.991Z,102312.06
2022-12-01T14:41:58.330Z,102308.41
2022-12-01T14:44:30.562Z,102304.91
2022-12-01T14:46:59.910Z,102310.91
2022-12-01T14:49:32.349Z,102311.44
2022-12-01T14:52:04.268Z,102313.97
2022-12-01T14:54:39.059Z,102310.44
2022-12-01T14:57:10.047Z,102313.56
2022-12-01T14:59:40.234Z,102316.16
2022-12-01T15:02:09.797Z,102313.03
2022-12-01T15:05:12.492Z,102318.59
2022-12-01T15:07:50.672Z,102319.72
2022-12-01T15:10:35.274Z,102325.47
2022-12-01T15:13:21.842Z,102314.28
2022-12-01T15:15:54.081Z,102316.28
2022-12-01T15:18:28.235Z,102317.78
2022-12-01T15:21:07.193Z,102313.84
2022-12-01T15:23:33.909Z,102320.63
2022-12-01T15:26:00.595Z,102320.59
2022-12-01T15:28:35.529Z,102309.50
2022-12-01T15:31:11.200Z,102316.75
2022-12-01T15:33:46.273Z,102319.56
2022-12-01T15:36:13.736Z,102308.22
2022-12-01T15:38:45.120Z,102314.72
2022-12-01T15:41:29.071Z,102311.28
2022-12-01T15:43:58.892Z,102307.38
2022-12-01T15:46:30.519Z,102303.66
2022-12-01T15:49:33.684Z,102306.44
2022-12-01T15:52:06.618Z,102309.69
2022-12-01T15:54:33.581Z,102308.84
2022-12-01T15:57:00.707Z,102299.22
2022-12-01T15:59:55.196Z,102294.84
2022-12-01T16:02:24.543Z,102302.13
2022-12-01T16:05:20.379Z,102297.53
2022-12-01T16:08:12.662Z,102296.50
2022-12-01T16:10:36.667Z,102294.16
2022-12-01T16:13:40.676Z,102294.09
2022-12-01T16:16:39.132Z,102301.34
2022-12-01T16:19:30.135Z,102295.88
2022-12-01T16:22:12.656Z,102298.72
2022-12-01T16:24:53.517Z,102296.41
2022-12-01T16:27:24.602Z,102294.81
2022-12-01T16:29:54.163Z,102294.84
2022-12-01T16:32:33.728Z,102291.25
2022-12-01T16:35:00.471Z,102302.06
2022-12-01T16:37:27.724Z,102297.13
2022-12-01T16:39:54.357Z,102297.03
2022-12-01T16:42:21.708Z,102295.38
2022-12-01T16:44:50.067Z,102296.97
2022-12-01T16:47:23.150Z,102305.84
2022-12-01T16:49:50.521Z,102292.84
2022-12-01T16:55:04.406Z,102294.81
2022-12-01T16:57:30.846Z,102299.88
2022-12-01T16:59:57.264Z,102304.63
2022-12-01T17:02:23.705Z,102295.31
2022-12-01T17:04:50.413Z,102305.31
2022-12-01T17:07:17.237Z,102299.16
2022-12-01T17:09:43.682Z,102293.69
2022-12-01T17:12:10.110Z,102293.31
2022-12-01T17:14:36.537Z,102292.44
2022-12-01T17:17:03.068Z,102293.06
2022-12-01T17:19:29.470Z,102295.69
2022-12-01T17:21:56.856Z,102299.22
2022-12-01T17:24:23.293Z,102294.56
2022-12-01T17:26:49.679Z,102303.84
2022-12-01T17:29:16.042Z,102300.09
2022-12-01T17:31:42.501Z,102308.22
2022-12-01T17:34:08.983Z,102307.72
2022-12-01T17:36:35.365Z,102309.19
2022-12-01T17:39:01.809Z,102308.16
2022-12-01T17:41:32.356Z,102308.06
2022-12-01T17:44:01.382Z,102303.69
2022-12-01T17:46:27.930Z,102306.66
2022-12-01T17:48:54.342Z,102304.16
2022-12-01T17:51:20.700Z,102308.16
2022-12-01T17:53:47.481Z,102304.78
2022-12-01T17:56:16.300Z,102306.16
2022-12-01T17:58:42.782Z,102302.53
2022-12-01T18:01:17.299Z,102295.66
2022-12-01T18:03:44.426Z,102309.25
2022-12-01T18:06:11.737Z,102300.88
2022-12-01T18:08:38.777Z,102298.34
2022-12-01T18:11:07.916Z,102301.09
2022-12-01T18:13:46.385Z,102300.41
2022-12-01T18:16:16.096Z,102296.06
2022-12-01T18:18:42.906Z,102293.31
2022-12-01T18:21:12.331Z,102293.13
2022-12-01T18:23:38.857Z,102292.81
2022-12-01T18:26:12.169Z,102294.53
2022-12-01T18:28:41.830Z,102297.13
2022-12-01T18:31:11.074Z,102292.28
2022-12-01T18:33:40.333Z,102290.88
2022-12-01T18:36:13.080Z,102295.31
2022-12-01T18:38:40.558Z,102289.19
2022-12-01T18:41:07.081Z,102292.41
2022-12-01T18:43:33.726Z,102294.63
2022-12-01T18:46:00.444Z,102294.84
2022-12-01T18:48:26.967Z,102287.69
2022-12-01T18:50:59.137Z,102283.13
2022-12-01T18:53:25.904Z,102289.09
2022-12-01T18:55:52.331Z,102289.63
2022-12-01T18:58:18.796Z,102294.31
2022-12-01T19:00:45.691Z,102298.91
2022-12-01T19:03:12.174Z,102294.56
2022-12-01T19:05:39.432Z,102302.84
2022-12-01T19:08:06.685Z,102301.56
2022-12-01T19:10:33.267Z,102302.59
2022-12-01T19:12:59.672Z,102300.19
2022-12-01T19:15:26.086Z,102294.75
2022-12-01T19:17:52.470Z,102299.00
2022-12-01T19:20:18.954Z,102297.53
2022-12-01T19:22:45.493Z,102292.09
2022-12-01T19:25:13.520Z,102289.94
2022-12-01T19:27:40.724Z,102294.78
2022-12-01T19:30:07.778Z,102296.19
2022-12-01T19:32:34.448Z,102293.47
2022-12-01T19:35:00.871Z,102293.44
2022-12-01T19:37:27.590Z,102293.38
2022-12-01T19:39:54.008Z,102290.91
2022-12-01T19:42:20.441Z,102293.75
2022-12-01T19:44:46.955Z,102299.56
2022-12-01T19:47:17.683Z,102287.19
2022-12-01T19:49:47.035Z,102298.72
2022-12-01T19:52:13.410Z,102296.06
2022-12-01T19:54:39.966Z,102292.59
2022-12-01T19:57:06.493Z,102298.00
2022-12-01T19:59:32.946Z,102289.19
2022-12-01T20:01:59.483Z,102292.59
2022-12-01T20:04:26.028Z,102293.97
2022-12-01T20:06:52.505Z,102286.44
2022-12-01T20:09:18.892Z,102297.50
2022-12-01T20:11:45.554Z,102298.06
2022-12-01T20:14:12.350Z,102300.75
2022-12-01T20:16:39.205Z,102293.09
2022-12-01T20:19:06.386Z,102291.94
2022-12-01T20:21:35.880Z,102297.81
2022-12-01T20:24:05.344Z,102288.94
2022-12-01T20:26:37.457Z,102287.00
2022-12-01T20:29:16.507Z,102283.91
2022-12-01T20:31:43.454Z,102285.25
2022-12-01T20:34:16.161Z,102289.53
2022-12-01T20:36:43.145Z,102289.78
2022-12-01T20:39:11.566Z,102283.81
2022-12-01T20:41:39.369Z,102286.25
2022-12-01T20:44:07.834Z,102285.00
2022-12-01T20:46:35.464Z,102278.00
2022-12-01T20:49:02.262Z,102277.34
2022-12-01T20:51:32.985Z,102268.22
2022-12-01T20:54:27.859Z,102271.19
2022-12-01T20:56:50.906Z,102276.06
2022-12-01T20:59:17.388Z,102274.78
2022-12-01T21:01:43.870Z,102274.25
2022-12-01T21:04:10.336Z,102271.25
2022-12-01T21:06:36.791Z,102272.28
2022-12-01T21:09:04.611Z,102271.28
2022-12-01T21:11:55.157Z,102267.56
2022-12-01T21:14:56.432Z,102268.84
2022-12-01T21:17:37.503Z,102271.78
2022-12-01T21:20:21.216Z,102270.03
2022-12-01T21:22:50.027Z,102270.88
2022-12-01T21:25:19.436Z,102268.16
2022-12-01T21:27:47.274Z,102264.69
2022-12-01T21:30:22.453Z,102268.22
2022-12-01T21:32:49.685Z,102265.88
2022-12-01T21:35:19.264Z,102258.25
2022-12-01T21:37:46.806Z,102262.28
2022-12-01T21:40:24.251Z,102265.88
2022-12-01T21:42:51.465Z,102262.03
2022-12-01T21:45:31.817Z,102267.91
2022-12-01T21:48:06.314Z,102261.13
2022-12-01T21:50:32.791Z,102265.38
2022-12-01T21:52:59.256Z,102261.06
2022-12-01T21:55:26.032Z,102258.31
2022-12-01T21:57:54.059Z,102253.44
2022-12-01T22:00:33.877Z,102252.06
2022-12-01T22:03:09.577Z,102249.69
2022-12-01T22:06:01.160Z,102251.09
2022-12-01T22:08:34.237Z,102248.13
2022-12-01T22:11:11.021Z,102246.78
2022-12-01T22:13:55.111Z,102240.13
2022-12-01T22:16:33.969Z,102237.94
2022-12-01T22:19:22.018Z,102238.44
2022-12-01T22:21:52.827Z,102248.28
2022-12-01T22:24:34.333Z,102241.44
2022-12-01T22:27:22.829Z,102239.31
2022-12-01T22:29:52.119Z,102246.44
2022-12-01T22:32:40.357Z,102246.44
2022-12-01T22:35:10.037Z,102241.25
2022-12-01T22:37:43.870Z,102236.69
2022-12-01T22:40:28.283Z,102237.00
2022-12-01T22:42:55.292Z,102235.31
2022-12-01T22:45:26.875Z,102232.41
2022-12-01T22:48:02.004Z,102232.63
2022-12-01T22:50:32.901Z,102244.91
2022-12-01T22:53:06.321Z,102241.44
2022-12-01T22:55:32.825Z,102234.03
2022-12-01T22:57:59.901Z,102226.88
2022-12-01T23:00:27.141Z,102224.69
2022-12-01T23:02:55.724Z,102232.78
2022-12-01T23:05:26.984Z,102223.06
2022-12-01T23:07:54.588Z,102222.84
2022-12-01T23:10:28.405Z,102225.81
2022-12-01T23:12:56.950Z,102231.31
2022-12-01T23:15:34.275Z,102221.09
2022-12-01T23:18:13.076Z,102220.38
2022-12-01T23:20:41.119Z,102216.66
2022-12-01T23:23:13.782Z,102215.56
2022-12-01T23:25:40.442Z,102219.03
2022-12-01T23:28:08.330Z,102202.03
2022-12-01T23:30:36.755Z,102208.75
2022-12-01T23:33:11.001Z,102214.09
2022-12-01T23:35:51.932Z,102211.81
2022-12-01T23:38:22.088Z,102209.91
2022-12-01T23:40:51.260Z,102200.13
2022-12-01T23:43:27.964Z,102198.25
2022-12-01T23:46:03.867Z,102194.84
2022-12-01T23:48:35.071Z,102201.44
2022-12-01T23:51:02.016Z,102207.75
2022-12-01T23:53:31.131Z,102206.41
2022-12-01T23:56:05.109Z,102199.25
2022-12-01T23:58:31.610Z,102196.25
